createdAt,value
2023-02-12T00:06:26.324Z,102.07
2023-02-12T00:14:31.755Z,98.75
2023-02-12T00:22:39.800Z,89.55
2023-02-12T00:30:45.283Z,80.20
2023-02-12T00:38:55.384Z,70.47
2023-02-12T00:47:03.910Z,64.05
2023-02-12T00:55:12.328Z,60.95
2023-02-12T01:03:18.223Z,60.33
2023-02-12T01:11:26.260Z,49.05
2023-02-12T01:19:32.029Z,59.13
2023-02-12T01:27:40.022Z,67.05
2023-02-12T01:35:45.448Z,57.25
2023-02-12T01:44:12.260Z,60.53
2023-02-12T01:52:21.447Z,64.22
2023-02-12T02:00:29.441Z,67.20
2023-02-12T02:08:37.736Z,66.57
2023-02-12T02:16:56.073Z,76.93
2023-02-12T02:25:24.893Z,71.85
2023-02-12T02:33:40.449Z,74.85
2023-02-12T02:41:50.521Z,81.85
2023-02-12T02:50:02.536Z,67.70
2023-02-12T02:58:12.321Z,71.40
2023-02-12T03:06:25.496Z,88.88
2023-02-12T03:14:35.289Z,95.10
2023-02-12T03:22:46.452Z,81.78
2023-02-12T03:30:57.060Z,89.40
2023-02-12T03:39:11.530Z,92.13
2023-02-12T03:47:24.507Z,92.05
2023-02-12T03:55:35.810Z,90.13
2023-02-12T04:03:41.628Z,88.65
2023-02-12T04:12:05.475Z,85.88
2023-02-12T04:20:18.628Z,70.65
2023-02-12T04:28:37.617Z,80.20
2023-02-12T04:36:54.758Z,63.72
2023-02-12T04:45:02.826Z,70.60
2023-02-12T04:53:08.673Z,88.65
2023-02-12T05:01:16.697Z,81.28
2023-02-12T05:09:23.938Z,70.95
2023-02-12T05:17:31.964Z,78.70
2023-02-12T05:25:37.285Z,82.90
2023-02-12T05:33:45.265Z,81.88
2023-02-12T05:41:50.695Z,63.47
2023-02-12T05:49:58.689Z,61.00
2023-02-12T05:58:03.993Z,67.32
2023-02-12T06:06:12.230Z,68.18
2023-02-12T06:14:19.293Z,61.38
2023-02-12T06:22:27.244Z,68.22
2023-02-12T06:30:32.683Z,70.25
2023-02-12T06:38:40.920Z,78.85
2023-02-12T06:46:46.455Z,71.78
2023-02-12T06:54:54.583Z,73.70
2023-02-12T07:03:00.112Z,80.47
2023-02-12T07:11:08.708Z,77.75
2023-02-12T07:19:17.218Z,75.85
2023-02-12T07:27:25.256Z,80.20
2023-02-12T07:35:30.674Z,90.03
2023-02-12T07:43:38.824Z,77.35
2023-02-12T07:51:44.866Z,88.60
2023-02-12T07:59:52.849Z,95.30
2023-02-12T08:07:58.169Z,140.27
2023-02-12T08:16:08.555Z,143.80
2023-02-12T08:24:14.690Z,130.38
2023-02-12T08:32:22.620Z,145.43
2023-02-12T08:40:27.935Z,122.65
2023-02-12T08:48:36.202Z,107.45
2023-02-12T08:56:41.597Z,101.25
2023-02-12T09:04:49.572Z,115.97
2023-02-12T09:12:55.041Z,121.55
2023-02-12T09:21:07.916Z,110.82
2023-02-12T09:29:13.331Z,106.57
2023-02-12T09:37:21.246Z,101.22
2023-02-12T09:45:33.161Z,100.82
2023-02-12T09:53:46.438Z,93.00
2023-02-12T10:01:51.828Z,94.63
2023-02-12T10:10:21.859Z,95.47
2023-02-12T10:18:48.472Z,107.38
2023-02-12T10:27:03.965Z,112.63
2023-02-12T10:35:17.110Z,121.97
2023-02-12T10:43:25.141Z,78.33
2023-02-12T10:51:51.706Z,64.75
2023-02-12T11:00:19.589Z,67.38
2023-02-12T11:08:34.497Z,54.70
2023-02-12T11:16:49.643Z,60.95
2023-02-12T11:25:03.410Z,57.10
2023-02-12T11:33:27.743Z,59.08
2023-02-12T11:41:37.619Z,93.38
2023-02-12T11:49:52.911Z,97.50
2023-02-12T11:58:05.842Z,92.82
2023-02-12T12:06:25.168Z,102.17
2023-02-12T12:14:34.948Z,97.55
2023-02-12T12:22:52.413Z,94.97
2023-02-12T12:31:10.233Z,80.47
2023-02-12T12:39:29.712Z,80.65
2023-02-12T12:47:43.692Z,80.03
2023-02-12T12:56:04.056Z,72.13
2023-02-12T13:04:35.867Z,79.32
2023-02-12T13:12:58.276Z,75.57
2023-02-12T13:21:08.682Z,85.97
2023-02-12T13:29:21.621Z,86.88
2023-02-12T13:37:36.631Z,83.43
2023-02-12T13:45:53.407Z,87.43
2023-02-12T13:54:14.790Z,85.40
2023-02-12T14:02:52.871Z,98.55
2023-02-12T14:11:12.403Z,106.90
2023-02-12T14:20:03.802Z,94.70
2023-02-12T14:28:26.441Z,82.30
2023-02-12T14:36:44.091Z,71.10
2023-02-12T14:44:59.328Z,73.80
2023-02-12T14:53:28.473Z,75.97
2023-02-12T15:01:38.558Z,82.60
2023-02-12T15:09:50.726Z,81.70
2023-02-12T15:18:03.498Z,94.82
2023-02-12T15:26:15.733Z,90.82
2023-02-12T15:34:26.979Z,107.55
2023-02-12T15:42:34.788Z,104.35
2023-02-12T15:50:53.763Z,122.20
2023-02-12T15:59:01.995Z,131.93
2023-02-12T16:07:11.400Z,140.40
2023-02-12T16:15:35.523Z,115.63
2023-02-12T16:23:47.237Z,116.38
2023-02-12T16:32:04.352Z,107.97
2023-02-12T16:40:43.036Z,104.85
2023-02-12T16:48:51.941Z,99.03
2023-02-12T16:57:03.839Z,107.97
2023-02-12T17:05:10.510Z,102.30
2023-02-12T17:13:21.020Z,105.72
2023-02-12T17:21:30.392Z,237.43
2023-02-12T17:29:38.575Z,164.30
2023-02-12T17:37:44.048Z,154.57
2023-02-12T17:45:53.408Z,147.45
2023-02-12T17:54:12.740Z,187.52
2023-02-12T18:02:21.319Z,203.73
2023-02-12T18:10:28.769Z,177.82
2023-02-12T18:18:38.603Z,138.05
2023-02-12T18:26:46.977Z,132.32
2023-02-12T18:34:55.372Z,133.02
2023-02-12T18:43:00.849Z,134.32
2023-02-12T18:51:11.709Z,121.15
2023-02-12T18:59:18.412Z,151.88
2023-02-12T19:07:27.561Z,181.73
2023-02-12T19:15:33.213Z,187.90
2023-02-12T19:23:42.066Z,189.07
2023-02-12T19:31:49.907Z,171.65
2023-02-12T19:39:58.035Z,154.20
2023-02-12T19:48:03.545Z,161.60
2023-02-12T19:56:12.078Z,150.52
2023-02-12T20:04:19.566Z,162.07
2023-02-12T20:12:27.680Z,165.30
2023-02-12T20:20:33.375Z,153.65
2023-02-12T20:28:44.676Z,150.30
2023-02-12T20:36:51.086Z,141.82
2023-02-12T20:44:59.162Z,138.98
2023-02-12T20:53:06.165Z,164.68
2023-02-12T21:01:17.353Z,159.82
2023-02-12T21:09:23.376Z,192.50
2023-02-12T21:17:31.437Z,172.95
2023-02-12T21:25:36.852Z,165.40
2023-02-12T21:33:46.622Z,218.30
2023-02-12T21:41:52.071Z,232.27
2023-02-12T21:50:00.121Z,203.82
2023-02-12T21:58:05.712Z,163.73
2023-02-12T22:06:15.012Z,155.50
2023-02-12T22:14:20.860Z,134.43
2023-02-12T22:22:30.496Z,148.20
2023-02-12T22:30:36.316Z,183.70
2023-02-12T22:38:44.802Z,167.02
2023-02-12T22:46:50.371Z,135.18
2023-02-12T22:54:58.357Z,142.68
2023-02-12T23:03:03.739Z,140.32
2023-02-12T23:11:12.919Z,141.07
2023-02-12T23:19:18.589Z,156.32
2023-02-12T23:27:26.521Z,145.82
2023-02-12T23:35:32.427Z,142.18
2023-02-12T23:43:40.353Z,104.55
2023-02-12T23:51:46.507Z,111.82
2023-02-12T23:59:54.769Z,107.63
